sensor_id;sensor_type;location;lat;lon;timestamp;temperature;humidity
66728;DHT22;53641;44.274;19.890;2023-09-12T00:02:12;17.40;98.70
66728;DHT22;53641;44.274;19.890;2023-09-12T00:04:38;19.20;99.20
66728;DHT22;53641;44.274;19.890;2023-09-12T00:07:04;18.20;98.60
66728;DHT22;53641;44.274;19.890;2023-09-12T00:09:29;17.20;98.50
66728;DHT22;53641;44.274;19.890;2023-09-12T00:11:55;16.60;98.60
66728;DHT22;53641;44.274;19.890;2023-09-12T00:14:21;17.60;99.00
66728;DHT22;53641;44.274;19.890;2023-09-12T00:16:47;19.10;99.80
66728;DHT22;53641;44.274;19.890;2023-09-12T00:19:13;19.10;99.90
66728;DHT22;53641;44.274;19.890;2023-09-12T00:21:39;18.40;99.70
66728;DHT22;53641;44.274;19.890;2023-09-12T00:24:06;17.40;99.20
66728;DHT22;53641;44.274;19.890;2023-09-12T00:26:32;18.40;99.50
66728;DHT22;53641;44.274;19.890;2023-09-12T00:28:58;18.20;99.90
66728;DHT22;53641;44.274;19.890;2023-09-12T00:31:24;18.60;99.90
66728;DHT22;53641;44.274;19.890;2023-09-12T00:33:50;16.50;99.80
66728;DHT22;53641;44.274;19.890;2023-09-12T00:36:16;16.70;99.90
66728;DHT22;53641;44.274;19.890;2023-09-12T00:38:42;17.60;99.90
66728;DHT22;53641;44.274;19.890;2023-09-12T00:41:07;17.50;99.90
66728;DHT22;53641;44.274;19.890;2023-09-12T00:43:33;17.80;99.90
66728;DHT22;53641;44.274;19.890;2023-09-12T00:45:59;17.30;99.90
66728;DHT22;53641;44.274;19.890;2023-09-12T00:48:26;18.10;99.90
66728;DHT22;53641;44.274;19.890;2023-09-12T00:50:52;16.60;99.70
66728;DHT22;53641;44.274;19.890;2023-09-12T00:53:19;18.50;99.90
66728;DHT22;53641;44.274;19.890;2023-09-12T00:55:50;18.00;99.90
66728;DHT22;53641;44.274;19.890;2023-09-12T00:58:17;17.60;99.90
66728;DHT22;53641;44.274;19.890;2023-09-12T01:00:43;17.90;99.90
66728;DHT22;53641;44.274;19.890;2023-09-12T01:03:09;17.40;99.90
66728;DHT22;53641;44.274;19.890;2023-09-12T01:05:35;17.20;99.90
66728;DHT22;53641;44.274;19.890;2023-09-12T01:08:01;18.70;99.90
66728;DHT22;53641;44.274;19.890;2023-09-12T01:10:28;17.90;99.90
66728;DHT22;53641;44.274;19.890;2023-09-12T01:12:54;18.30;99.90
66728;DHT22;53641;44.274;19.890;2023-09-12T01:15:20;16.80;99.90
66728;DHT22;53641;44.274;19.890;2023-09-12T01:17:45;18.10;99.90
66728;DHT22;53641;44.274;19.890;2023-09-12T01:20:16;17.50;99.90
66728;DHT22;53641;44.274;19.890;2023-09-12T01:23:08;17.20;99.90
66728;DHT22;53641;44.274;19.890;2023-09-12T01:25:59;17.30;99.90
66728;DHT22;53641;44.274;19.890;2023-09-12T01:28:29;16.90;99.90
66728;DHT22;53641;44.274;19.890;2023-09-12T01:31:00;17.00;99.90
66728;DHT22;53641;44.274;19.890;2023-09-12T01:33:27;17.70;99.90
66728;DHT22;53641;44.274;19.890;2023-09-12T01:35:53;17.70;99.90
66728;DHT22;53641;44.274;19.890;2023-09-12T01:38:20;17.40;99.90
66728;DHT22;53641;44.274;19.890;2023-09-12T01:40:51;17.20;99.90
66728;DHT22;53641;44.274;19.890;2023-09-12T01:43:19;18.00;99.90
66728;DHT22;53641;44.274;19.890;2023-09-12T01:45:48;17.60;99.90
66728;DHT22;53641;44.274;19.890;2023-09-12T01:48:19;16.80;99.90
66728;DHT22;53641;44.274;19.890;2023-09-12T01:50:45;17.90;99.90
66728;DHT22;53641;44.274;19.890;2023-09-12T01:53:11;16.70;99.90
66728;DHT22;53641;44.274;19.890;2023-09-12T01:55:37;18.30;99.90
66728;DHT22;53641;44.274;19.890;2023-09-12T01:58:03;15.50;99.90
66728;DHT22;53641;44.274;19.890;2023-09-12T02:00:29;15.90;99.90
66728;DHT22;53641;44.274;19.890;2023-09-12T02:02:55;16.50;99.90
66728;DHT22;53641;44.274;19.890;2023-09-12T02:05:22;15.90;99.90
66728;DHT22;53641;44.274;19.890;2023-09-12T02:07:48;16.90;99.90
66728;DHT22;53641;44.274;19.890;2023-09-12T02:10:14;16.40;99.90
66728;DHT22;53641;44.274;19.890;2023-09-12T02:12:40;17.40;99.90
66728;DHT22;53641;44.274;19.890;2023-09-12T02:15:06;16.90;99.90
66728;DHT22;53641;44.274;19.890;2023-09-12T02:17:32;16.40;99.90
66728;DHT22;53641;44.274;19.890;2023-09-12T02:19:58;15.70;99.90
66728;DHT22;53641;44.274;19.890;2023-09-12T02:22:24;17.70;99.90
66728;DHT22;53641;44.274;19.890;2023-09-12T02:24:50;16.30;99.90
66728;DHT22;53641;44.274;19.890;2023-09-12T02:27:16;17.90;99.90
66728;DHT22;53641;44.274;19.890;2023-09-12T02:29:42;16.00;99.90
66728;DHT22;53641;44.274;19.890;2023-09-12T02:32:09;17.30;99.90
66728;DHT22;53641;44.274;19.890;2023-09-12T02:34:35;15.70;99.90
66728;DHT22;53641;44.274;19.890;2023-09-12T02:37:01;16.20;99.90
66728;DHT22;53641;44.274;19.890;2023-09-12T02:39:27;17.50;99.90
66728;DHT22;53641;44.274;19.890;2023-09-12T02:41:52;16.30;99.90
66728;DHT22;53641;44.274;19.890;2023-09-12T02:44:18;15.70;99.90
66728;DHT22;53641;44.274;19.890;2023-09-12T02:46:44;16.30;99.90
66728;DHT22;53641;44.274;19.890;2023-09-12T02:49:10;16.20;99.90
66728;DHT22;53641;44.274;19.890;2023-09-12T02:51:39;17.10;99.90
66728;DHT22;53641;44.274;19.890;2023-09-12T02:54:05;15.80;99.90
66728;DHT22;53641;44.274;19.890;2023-09-12T02:56:31;16.00;99.90
66728;DHT22;53641;44.274;19.890;2023-09-12T02:58:57;17.20;99.90
66728;DHT22;53641;44.274;19.890;2023-09-12T03:01:23;16.80;99.90
66728;DHT22;53641;44.274;19.890;2023-09-12T03:03:53;15.20;99.90
66728;DHT22;53641;44.274;19.890;2023-09-12T03:06:19;17.40;99.90
66728;DHT22;53641;44.274;19.890;2023-09-12T03:08:46;17.10;99.90
66728;DHT22;53641;44.274;19.890;2023-09-12T03:11:12;16.10;99.90
66728;DHT22;53641;44.274;19.890;2023-09-12T03:13:41;17.60;99.90
66728;DHT22;53641;44.274;19.890;2023-09-12T03:16:11;15.70;99.90
66728;DHT22;53641;44.274;19.890;2023-09-12T03:18:39;16.90;99.90
66728;DHT22;53641;44.274;19.890;2023-09-12T03:21:05;16.60;99.90
66728;DHT22;53641;44.274;19.890;2023-09-12T03:23:31;15.90;99.90
66728;DHT22;53641;44.274;19.890;2023-09-12T03:26:05;17.20;99.90
66728;DHT22;53641;44.274;19.890;2023-09-12T03:28:31;16.40;99.90
66728;DHT22;53641;44.274;19.890;2023-09-12T03:31:06;16.80;99.90
66728;DHT22;53641;44.274;19.890;2023-09-12T03:33:33;15.40;99.90
66728;DHT22;53641;44.274;19.890;2023-09-12T03:35:59;16.70;99.90
66728;DHT22;53641;44.274;19.890;2023-09-12T03:38:25;15.60;99.90
66728;DHT22;53641;44.274;19.890;2023-09-12T03:40:51;16.40;99.90
66728;DHT22;53641;44.274;19.890;2023-09-12T03:43:17;17.10;99.90
66728;DHT22;53641;44.274;19.890;2023-09-12T03:45:42;17.00;99.90
66728;DHT22;53641;44.274;19.890;2023-09-12T03:48:08;16.30;99.90
66728;DHT22;53641;44.274;19.890;2023-09-12T03:50:37;15.80;99.90
66728;DHT22;53641;44.274;19.890;2023-09-12T03:53:03;15.90;99.90
66728;DHT22;53641;44.274;19.890;2023-09-12T03:55:29;16.30;99.90
66728;DHT22;53641;44.274;19.890;2023-09-12T03:57:55;16.20;99.90
66728;DHT22;53641;44.274;19.890;2023-09-12T04:00:20;16.30;99.90
66728;DHT22;53641;44.274;19.890;2023-09-12T04:02:46;16.20;99.90
66728;DHT22;53641;44.274;19.890;2023-09-12T04:05:13;16.30;99.90
66728;DHT22;53641;44.274;19.890;2023-09-12T04:07:39;16.00;99.90
66728;DHT22;53641;44.274;19.890;2023-09-12T04:10:05;16.00;99.90
66728;DHT22;53641;44.274;19.890;2023-09-12T04:12:31;16.20;99.90
66728;DHT22;53641;44.274;19.890;2023-09-12T04:14:57;16.00;99.90
66728;DHT22;53641;44.274;19.890;2023-09-12T04:17:22;16.20;99.90
66728;DHT22;53641;44.274;19.890;2023-09-12T04:19:49;16.20;99.90
66728;DHT22;53641;44.274;19.890;2023-09-12T04:22:15;16.10;99.90
66728;DHT22;53641;44.274;19.890;2023-09-12T04:24:41;15.40;99.90
66728;DHT22;53641;44.274;19.890;2023-09-12T04:27:07;16.00;99.90
66728;DHT22;53641;44.274;19.890;2023-09-12T04:29:33;15.90;99.90
66728;DHT22;53641;44.274;19.890;2023-09-12T04:32:02;15.50;99.90
66728;DHT22;53641;44.274;19.890;2023-09-12T04:34:28;15.70;99.90
66728;DHT22;53641;44.274;19.890;2023-09-12T04:36:54;16.30;99.90
66728;DHT22;53641;44.274;19.890;2023-09-12T04:39:20;15.60;99.90
66728;DHT22;53641;44.274;19.890;2023-09-12T04:41:46;16.30;99.90
66728;DHT22;53641;44.274;19.890;2023-09-12T04:44:12;16.20;99.90
66728;DHT22;53641;44.274;19.890;2023-09-12T04:46:37;16.30;99.90
66728;DHT22;53641;44.274;19.890;2023-09-12T04:49:03;16.70;99.90
66728;DHT22;53641;44.274;19.890;2023-09-12T04:51:29;16.40;99.90
66728;DHT22;53641;44.274;19.890;2023-09-12T04:53:55;16.30;99.90
66728;DHT22;53641;44.274;19.890;2023-09-12T04:56:21;16.10;99.90
66728;DHT22;53641;44.274;19.890;2023-09-12T04:58:49;16.30;99.90
66728;DHT22;53641;44.274;19.890;2023-09-12T05:01:15;15.70;99.90
66728;DHT22;53641;44.274;19.890;2023-09-12T05:03:42;15.60;99.90
66728;DHT22;53641;44.274;19.890;2023-09-12T05:06:07;15.70;99.90
66728;DHT22;53641;44.274;19.890;2023-09-12T05:08:33;14.90;99.90
66728;DHT22;53641;44.274;19.890;2023-09-12T05:11:00;15.00;99.90
66728;DHT22;53641;44.274;19.890;2023-09-12T05:13:25;15.90;99.90
66728;DHT22;53641;44.274;19.890;2023-09-12T05:15:51;16.90;99.90
66728;DHT22;53641;44.274;19.890;2023-09-12T05:18:17;16.50;99.90
66728;DHT22;53641;44.274;19.890;2023-09-12T05:20:43;17.10;99.90
66728;DHT22;53641;44.274;19.890;2023-09-12T05:23:09;16.70;99.90
66728;DHT22;53641;44.274;19.890;2023-09-12T05:25:35;16.80;99.90
66728;DHT22;53641;44.274;19.890;2023-09-12T05:28:01;17.20;99.90
66728;DHT22;53641;44.274;19.890;2023-09-12T05:30:26;16.80;99.90
66728;DHT22;53641;44.274;19.890;2023-09-12T05:32:52;16.30;99.90
66728;DHT22;53641;44.274;19.890;2023-09-12T05:35:18;16.40;99.90
66728;DHT22;53641;44.274;19.890;2023-09-12T05:37:44;15.70;99.90
66728;DHT22;53641;44.274;19.890;2023-09-12T05:40:10;16.50;99.90
66728;DHT22;53641;44.274;19.890;2023-09-12T05:42:39;17.40;99.70
66728;DHT22;53641;44.274;19.890;2023-09-12T05:45:06;17.70;99.90
66728;DHT22;53641;44.274;19.890;2023-09-12T05:47:32;17.50;99.90
66728;DHT22;53641;44.274;19.890;2023-09-12T05:49:58;17.70;99.90
66728;DHT22;53641;44.274;19.890;2023-09-12T05:52:26;16.20;99.10
66728;DHT22;53641;44.274;19.890;2023-09-12T05:54:55;18.40;99.60
66728;DHT22;53641;44.274;19.890;2023-09-12T05:57:21;16.40;99.20
66728;DHT22;53641;44.274;19.890;2023-09-12T05:59:46;17.10;99.00
66728;DHT22;53641;44.274;19.890;2023-09-12T06:02:13;18.10;99.20
66728;DHT22;53641;44.274;19.890;2023-09-12T06:04:39;18.30;98.90
66728;DHT22;53641;44.274;19.890;2023-09-12T06:07:05;17.70;98.30
66728;DHT22;53641;44.274;19.890;2023-09-12T06:09:30;17.50;97.90
66728;DHT22;53641;44.274;19.890;2023-09-12T06:11:56;18.10;97.90
66728;DHT22;53641;44.274;19.890;2023-09-12T06:14:22;18.70;97.50
66728;DHT22;53641;44.274;19.890;2023-09-12T06:16:48;18.00;97.00
66728;DHT22;53641;44.274;19.890;2023-09-12T06:19:14;19.40;97.30
66728;DHT22;53641;44.274;19.890;2023-09-12T06:21:40;18.20;97.40
66728;DHT22;53641;44.274;19.890;2023-09-12T06:24:11;19.00;96.80
66728;DHT22;53641;44.274;19.890;2023-09-12T06:26:38;18.80;96.40
66728;DHT22;53641;44.274;19.890;2023-09-12T06:29:04;19.30;96.00
66728;DHT22;53641;44.274;19.890;2023-09-12T06:31:31;20.00;95.00
66728;DHT22;53641;44.274;19.890;2023-09-12T06:33:57;21.70;93.30
66728;DHT22;53641;44.274;19.890;2023-09-12T06:36:24;23.00;92.10
66728;DHT22;53641;44.274;19.890;2023-09-12T06:38:50;24.40;90.40
66728;DHT22;53641;44.274;19.890;2023-09-12T06:41:19;25.30;88.40
66728;DHT22;53641;44.274;19.890;2023-09-12T06:43:45;25.90;84.00
66728;DHT22;53641;44.274;19.890;2023-09-12T06:46:14;27.60;84.10
66728;DHT22;53641;44.274;19.890;2023-09-12T06:48:45;27.90;80.70
66728;DHT22;53641;44.274;19.890;2023-09-12T06:51:11;28.60;81.80
66728;DHT22;53641;44.274;19.890;2023-09-12T06:53:40;29.10;78.30
66728;DHT22;53641;44.274;19.890;2023-09-12T06:56:06;28.60;77.20
66728;DHT22;53641;44.274;19.890;2023-09-12T06:58:33;29.90;76.70
66728;DHT22;53641;44.274;19.890;2023-09-12T07:01:06;29.90;76.00
66728;DHT22;53641;44.274;19.890;2023-09-12T07:03:32;30.50;74.00
66728;DHT22;53641;44.274;19.890;2023-09-12T07:06:00;31.20;73.80
66728;DHT22;53641;44.274;19.890;2023-09-12T07:08:28;31.90;72.40
66728;DHT22;53641;44.274;19.890;2023-09-12T07:10:54;31.70;71.50
66728;DHT22;53641;44.274;19.890;2023-09-12T07:13:25;31.80;72.00
66728;DHT22;53641;44.274;19.890;2023-09-12T07:15:51;32.60;70.80
66728;DHT22;53641;44.274;19.890;2023-09-12T07:18:17;33.20;70.90
66728;DHT22;53641;44.274;19.890;2023-09-12T07:20:43;33.00;69.40
66728;DHT22;53641;44.274;19.890;2023-09-12T07:23:12;33.00;67.30
66728;DHT22;53641;44.274;19.890;2023-09-12T07:25:39;33.20;66.90
66728;DHT22;53641;44.274;19.890;2023-09-12T07:28:06;33.30;66.60
66728;DHT22;53641;44.274;19.890;2023-09-12T07:30:32;32.90;65.50
66728;DHT22;53641;44.274;19.890;2023-09-12T07:32:58;33.00;64.70
66728;DHT22;53641;44.274;19.890;2023-09-12T07:35:24;33.10;65.30
66728;DHT22;53641;44.274;19.890;2023-09-12T07:37:50;33.20;64.50
66728;DHT22;53641;44.274;19.890;2023-09-12T07:40:16;33.30;65.30
66728;DHT22;53641;44.274;19.890;2023-09-12T07:42:42;33.80;65.80
66728;DHT22;53641;44.274;19.890;2023-09-12T07:45:08;33.80;64.80
66728;DHT22;53641;44.274;19.890;2023-09-12T07:47:34;33.70;64.40
66728;DHT22;53641;44.274;19.890;2023-09-12T07:50:00;33.70;65.10
66728;DHT22;53641;44.274;19.890;2023-09-12T07:52:26;34.00;64.80
66728;DHT22;53641;44.274;19.890;2023-09-12T07:54:52;33.60;64.20
66728;DHT22;53641;44.274;19.890;2023-09-12T07:57:23;33.70;65.20
66728;DHT22;53641;44.274;19.890;2023-09-12T07:59:49;32.10;64.10
66728;DHT22;53641;44.274;19.890;2023-09-12T08:02:14;32.30;65.60
66728;DHT22;53641;44.274;19.890;2023-09-12T08:04:40;31.60;66.60
66728;DHT22;53641;44.274;19.890;2023-09-12T08:07:06;32.30;67.50
66728;DHT22;53641;44.274;19.890;2023-09-12T08:09:55;32.30;67.10
66728;DHT22;53641;44.274;19.890;2023-09-12T08:12:24;32.30;67.20
66728;DHT22;53641;44.274;19.890;2023-09-12T08:14:50;32.80;65.60
66728;DHT22;53641;44.274;19.890;2023-09-12T08:17:16;32.00;65.90
66728;DHT22;53641;44.274;19.890;2023-09-12T08:19:42;31.80;66.00
66728;DHT22;53641;44.274;19.890;2023-09-12T08:22:09;31.50;61.40
66728;DHT22;53641;44.274;19.890;2023-09-12T08:24:35;31.00;64.90
66728;DHT22;53641;44.274;19.890;2023-09-12T08:27:02;30.70;65.30
66728;DHT22;53641;44.274;19.890;2023-09-12T08:29:29;31.30;65.70
66728;DHT22;53641;44.274;19.890;2023-09-12T08:31:55;30.70;66.50
66728;DHT22;53641;44.274;19.890;2023-09-12T08:34:21;31.70;66.90
66728;DHT22;53641;44.274;19.890;2023-09-12T08:36:47;31.70;66.90
66728;DHT22;53641;44.274;19.890;2023-09-12T08:39:15;31.30;65.60
66728;DHT22;53641;44.274;19.890;2023-09-12T08:41:44;30.50;64.70
66728;DHT22;53641;44.274;19.890;2023-09-12T08:44:12;31.80;65.70
66728;DHT22;53641;44.274;19.890;2023-09-12T08:46:38;31.40;65.00
66728;DHT22;53641;44.274;19.890;2023-09-12T08:49:06;32.00;63.60
66728;DHT22;53641;44.274;19.890;2023-09-12T08:51:32;31.20;62.20
66728;DHT22;53641;44.274;19.890;2023-09-12T08:53:59;31.70;63.90
66728;DHT22;53641;44.274;19.890;2023-09-12T08:56:25;32.70;64.60
66728;DHT22;53641;44.274;19.890;2023-09-12T08:58:51;33.00;65.60
66728;DHT22;53641;44.274;19.890;2023-09-12T09:01:18;32.10;63.10
66728;DHT22;53641;44.274;19.890;2023-09-12T09:03:44;33.20;62.60
66728;DHT22;53641;44.274;19.890;2023-09-12T09:06:11;33.60;62.90
66728;DHT22;53641;44.274;19.890;2023-09-12T09:08:39;33.30;62.60
66728;DHT22;53641;44.274;19.890;2023-09-12T09:11:06;32.70;64.40
66728;DHT22;53641;44.274;19.890;2023-09-12T09:13:32;31.80;63.80
66728;DHT22;53641;44.274;19.890;2023-09-12T09:16:13;32.40;65.50
66728;DHT22;53641;44.274;19.890;2023-09-12T09:18:56;31.60;64.50
66728;DHT22;53641;44.274;19.890;2023-09-12T09:21:25;31.90;65.90
66728;DHT22;53641;44.274;19.890;2023-09-12T09:23:52;31.70;65.00
66728;DHT22;53641;44.274;19.890;2023-09-12T09:26:21;31.20;63.50
66728;DHT22;53641;44.274;19.890;2023-09-12T09:29:08;31.40;64.30
66728;DHT22;53641;44.274;19.890;2023-09-12T09:31:34;31.20;62.60
66728;DHT22;53641;44.274;19.890;2023-09-12T09:34:01;31.40;64.50
66728;DHT22;53641;44.274;19.890;2023-09-12T09:36:31;31.20;65.00
66728;DHT22;53641;44.274;19.890;2023-09-12T09:38:58;30.90;64.20
66728;DHT22;53641;44.274;19.890;2023-09-12T09:41:25;30.90;64.80
66728;DHT22;53641;44.274;19.890;2023-09-12T09:43:51;31.30;64.60
66728;DHT22;53641;44.274;19.890;2023-09-12T09:46:19;31.00;65.20
66728;DHT22;53641;44.274;19.890;2023-09-12T09:48:49;30.40;62.80
66728;DHT22;53641;44.274;19.890;2023-09-12T09:51:16;31.00;63.50
66728;DHT22;53641;44.274;19.890;2023-09-12T09:53:42;30.40;62.90
66728;DHT22;53641;44.274;19.890;2023-09-12T09:56:10;29.90;62.80
66728;DHT22;53641;44.274;19.890;2023-09-12T09:58:53;31.50;64.00
66728;DHT22;53641;44.274;19.890;2023-09-12T10:01:28;31.40;64.30
66728;DHT22;53641;44.274;19.890;2023-09-12T10:04:00;31.00;62.80
66728;DHT22;53641;44.274;19.890;2023-09-12T10:06:27;29.60;63.70
66728;DHT22;53641;44.274;19.890;2023-09-12T10:08:54;30.70;64.90
66728;DHT22;53641;44.274;19.890;2023-09-12T10:11:24;30.80;63.20
66728;DHT22;53641;44.274;19.890;2023-09-12T10:13:54;30.80;61.10
66728;DHT22;53641;44.274;19.890;2023-09-12T10:16:24;30.10;62.30
66728;DHT22;53641;44.274;19.890;2023-09-12T10:19:12;30.90;64.10
66728;DHT22;53641;44.274;19.890;2023-09-12T10:21:46;30.10;61.50
66728;DHT22;53641;44.274;19.890;2023-09-12T10:24:14;31.20;63.70
66728;DHT22;53641;44.274;19.890;2023-09-12T10:26:41;29.90;60.60
66728;DHT22;53641;44.274;19.890;2023-09-12T10:29:10;31.10;61.50
66728;DHT22;53641;44.274;19.890;2023-09-12T10:31:36;30.50;61.10
66728;DHT22;53641;44.274;19.890;2023-09-12T10:34:03;29.50;59.80
66728;DHT22;53641;44.274;19.890;2023-09-12T10:36:32;29.40;59.80
66728;DHT22;53641;44.274;19.890;2023-09-12T10:38:59;29.30;60.60
66728;DHT22;53641;44.274;19.890;2023-09-12T10:41:26;30.30;61.00
66728;DHT22;53641;44.274;19.890;2023-09-12T10:43:53;30.10;59.70
66728;DHT22;53641;44.274;19.890;2023-09-12T10:46:19;30.50;60.10
66728;DHT22;53641;44.274;19.890;2023-09-12T10:48:47;30.70;60.70
66728;DHT22;53641;44.274;19.890;2023-09-12T10:51:13;29.90;57.60
66728;DHT22;53641;44.274;19.890;2023-09-12T10:53:49;30.80;59.00
66728;DHT22;53641;44.274;19.890;2023-09-12T10:56:17;30.60;58.10
66728;DHT22;53641;44.274;19.890;2023-09-12T10:59:08;29.50;58.10
66728;DHT22;53641;44.274;19.890;2023-09-12T11:01:42;31.20;58.50
66728;DHT22;53641;44.274;19.890;2023-09-12T11:04:31;29.50;58.50
66728;DHT22;53641;44.274;19.890;2023-09-12T11:06:59;30.50;57.60
66728;DHT22;53641;44.274;19.890;2023-09-12T11:09:26;31.50;60.00
66728;DHT22;53641;44.274;19.890;2023-09-12T11:11:57;30.00;55.50
66728;DHT22;53641;44.274;19.890;2023-09-12T11:14:23;30.50;56.60
66728;DHT22;53641;44.274;19.890;2023-09-12T11:17:19;30.30;56.50
66728;DHT22;53641;44.274;19.890;2023-09-12T11:19:48;30.90;56.70
66728;DHT22;53641;44.274;19.890;2023-09-12T11:22:23;31.20;57.00
66728;DHT22;53641;44.274;19.890;2023-09-12T11:24:49;29.90;56.30
66728;DHT22;53641;44.274;19.890;2023-09-12T11:27:15;31.00;58.30
66728;DHT22;53641;44.274;19.890;2023-09-12T11:29:42;30.70;56.30
66728;DHT22;53641;44.274;19.890;2023-09-12T11:32:08;32.10;57.80
66728;DHT22;53641;44.274;19.890;2023-09-12T11:34:41;30.70;55.90
66728;DHT22;53641;44.274;19.890;2023-09-12T11:37:07;31.50;56.30
66728;DHT22;53641;44.274;19.890;2023-09-12T11:39:36;31.50;58.10
66728;DHT22;53641;44.274;19.890;2023-09-12T11:42:04;31.20;55.80
66728;DHT22;53641;44.274;19.890;2023-09-12T11:44:30;31.30;56.10
66728;DHT22;53641;44.274;19.890;2023-09-12T11:46:59;31.10;56.00
66728;DHT22;53641;44.274;19.890;2023-09-12T11:49:37;31.10;53.80
66728;DHT22;53641;44.274;19.890;2023-09-12T11:52:11;31.20;53.70
66728;DHT22;53641;44.274;19.890;2023-09-12T11:54:38;31.30;53.80
66728;DHT22;53641;44.274;19.890;2023-09-12T11:57:07;31.40;54.90
66728;DHT22;53641;44.274;19.890;2023-09-12T11:59:36;31.60;53.00
66728;DHT22;53641;44.274;19.890;2023-09-12T12:02:05;31.50;53.20
66728;DHT22;53641;44.274;19.890;2023-09-12T12:04:31;31.50;53.80
66728;DHT22;53641;44.274;19.890;2023-09-12T12:06:57;32.20;54.20
66728;DHT22;53641;44.274;19.890;2023-09-12T12:09:24;31.30;53.00
66728;DHT22;53641;44.274;19.890;2023-09-12T12:11:50;31.70;54.60
66728;DHT22;53641;44.274;19.890;2023-09-12T12:14:19;31.40;54.50
66728;DHT22;53641;44.274;19.890;2023-09-12T12:16:46;31.80;54.60
66728;DHT22;53641;44.274;19.890;2023-09-12T12:19:13;31.90;54.60
66728;DHT22;53641;44.274;19.890;2023-09-12T12:21:42;32.30;53.80
66728;DHT22;53641;44.274;19.890;2023-09-12T12:24:13;32.00;54.50
66728;DHT22;53641;44.274;19.890;2023-09-12T12:26:46;31.50;53.20
66728;DHT22;53641;44.274;19.890;2023-09-12T12:29:12;31.20;54.40
66728;DHT22;53641;44.274;19.890;2023-09-12T12:31:39;31.30;54.60
66728;DHT22;53641;44.274;19.890;2023-09-12T12:34:05;31.90;54.20
66728;DHT22;53641;44.274;19.890;2023-09-12T12:36:31;32.00;54.90
66728;DHT22;53641;44.274;19.890;2023-09-12T12:38:57;31.90;55.00
66728;DHT22;53641;44.274;19.890;2023-09-12T12:41:29;31.80;54.00
66728;DHT22;53641;44.274;19.890;2023-09-12T12:43:57;31.60;54.40
66728;DHT22;53641;44.274;19.890;2023-09-12T12:46:26;31.60;55.20
66728;DHT22;53641;44.274;19.890;2023-09-12T12:48:53;31.70;55.30
66728;DHT22;53641;44.274;19.890;2023-09-12T12:51:23;31.80;54.80
66728;DHT22;53641;44.274;19.890;2023-09-12T12:53:54;31.80;55.70
66728;DHT22;53641;44.274;19.890;2023-09-12T12:56:22;31.80;55.30
66728;DHT22;53641;44.274;19.890;2023-09-12T12:58:49;32.10;55.60
66728;DHT22;53641;44.274;19.890;2023-09-12T13:01:16;32.20;55.60
66728;DHT22;53641;44.274;19.890;2023-09-12T13:03:42;31.90;55.70
66728;DHT22;53641;44.274;19.890;2023-09-12T13:06:08;32.10;56.20
66728;DHT22;53641;44.274;19.890;2023-09-12T13:08:40;31.80;55.90
66728;DHT22;53641;44.274;19.890;2023-09-12T13:11:07;32.20;56.20
66728;DHT22;53641;44.274;19.890;2023-09-12T13:13:33;31.50;55.50
66728;DHT22;53641;44.274;19.890;2023-09-12T13:15:59;31.90;55.80
66728;DHT22;53641;44.274;19.890;2023-09-12T13:18:26;32.00;54.80
66728;DHT22;53641;44.274;19.890;2023-09-12T13:20:52;32.20;54.90
66728;DHT22;53641;44.274;19.890;2023-09-12T13:23:18;32.00;55.30
66728;DHT22;53641;44.274;19.890;2023-09-12T13:25:43;32.00;55.10
66728;DHT22;53641;44.274;19.890;2023-09-12T13:28:09;32.20;55.10
66728;DHT22;53641;44.274;19.890;2023-09-12T13:30:35;31.20;54.80
66728;DHT22;53641;44.274;19.890;2023-09-12T13:33:01;31.70;55.30
66728;DHT22;53641;44.274;19.890;2023-09-12T13:35:26;32.10;55.90
66728;DHT22;53641;44.274;19.890;2023-09-12T13:37:52;31.70;55.00
66728;DHT22;53641;44.274;19.890;2023-09-12T13:40:21;31.90;55.30
66728;DHT22;53641;44.274;19.890;2023-09-12T13:42:46;31.90;55.70
66728;DHT22;53641;44.274;19.890;2023-09-12T13:45:12;31.50;56.10
66728;DHT22;53641;44.274;19.890;2023-09-12T13:47:38;31.50;55.70
66728;DHT22;53641;44.274;19.890;2023-09-12T13:50:10;31.60;55.90
66728;DHT22;53641;44.274;19.890;2023-09-12T13:52:36;31.90;56.00
66728;DHT22;53641;44.274;19.890;2023-09-12T13:55:03;31.30;55.90
66728;DHT22;53641;44.274;19.890;2023-09-12T13:57:29;31.90;56.80
66728;DHT22;53641;44.274;19.890;2023-09-12T13:59:55;32.10;57.10
66728;DHT22;53641;44.274;19.890;2023-09-12T14:02:21;32.20;57.40
66728;DHT22;53641;44.274;19.890;2023-09-12T14:04:49;32.60;57.60
66728;DHT22;53641;44.274;19.890;2023-09-12T14:07:15;32.20;56.80
66728;DHT22;53641;44.274;19.890;2023-09-12T14:09:40;32.10;56.60
66728;DHT22;53641;44.274;19.890;2023-09-12T14:12:06;32.20;57.20
66728;DHT22;53641;44.274;19.890;2023-09-12T14:14:33;32.30;56.60
66728;DHT22;53641;44.274;19.890;2023-09-12T14:16:59;32.30;56.90
66728;DHT22;53641;44.274;19.890;2023-09-12T14:19:25;32.10;56.30
66728;DHT22;53641;44.274;19.890;2023-09-12T14:21:51;32.10;57.10
66728;DHT22;53641;44.274;19.890;2023-09-12T14:24:16;31.90;56.90
66728;DHT22;53641;44.274;19.890;2023-09-12T14:26:42;32.10;57.60
66728;DHT22;53641;44.274;19.890;2023-09-12T14:29:08;31.90;57.30
66728;DHT22;53641;44.274;19.890;2023-09-12T14:31:34;31.60;56.90
66728;DHT22;53641;44.274;19.890;2023-09-12T14:34:02;31.40;57.30
66728;DHT22;53641;44.274;19.890;2023-09-12T14:36:29;31.70;57.80
66728;DHT22;53641;44.274;19.890;2023-09-12T14:38:55;31.80;58.20
66728;DHT22;53641;44.274;19.890;2023-09-12T14:41:21;31.70;57.90
66728;DHT22;53641;44.274;19.890;2023-09-12T14:43:47;31.60;57.20
66728;DHT22;53641;44.274;19.890;2023-09-12T14:46:12;31.60;57.80
66728;DHT22;53641;44.274;19.890;2023-09-12T14:48:38;31.50;57.90
66728;DHT22;53641;44.274;19.890;2023-09-12T14:51:04;31.50;57.60
66728;DHT22;53641;44.274;19.890;2023-09-12T14:53:30;31.40;58.00
66728;DHT22;53641;44.274;19.890;2023-09-12T14:55:57;31.40;57.30
66728;DHT22;53641;44.274;19.890;2023-09-12T14:58:23;31.30;57.30
66728;DHT22;53641;44.274;19.890;2023-09-12T15:00:49;31.40;57.50
66728;DHT22;53641;44.274;19.890;2023-09-12T15:03:14;31.50;59.10
66728;DHT22;53641;44.274;19.890;2023-09-12T15:05:40;31.30;58.40
66728;DHT22;53641;44.274;19.890;2023-09-12T15:08:06;31.30;59.00
66728;DHT22;53641;44.274;19.890;2023-09-12T15:10:32;31.20;58.10
66728;DHT22;53641;44.274;19.890;2023-09-12T15:12:58;31.50;58.20
66728;DHT22;53641;44.274;19.890;2023-09-12T15:15:26;31.30;59.10
66728;DHT22;53641;44.274;19.890;2023-09-12T15:17:52;31.10;58.20